Time;durP1;ratioP1;P1;durP2;ratioP2;P2;SDS_P1;SDS_P2;PMS_P1;PMS_P2;Temp;Humidity;BMP_temperature;BMP_pressure;BME280_temperature;BME280_humidity;BME280_pressure;Samples;Min_cycle;Max_cycle;Signal;HPM_P1;HPM_P2
2021/11/01 00:03:19;;;;;;;;;2.75;1.00;;;;;12.46;86.51;99418.81;5075755;28;45677;-81
2021/11/01 00:05:46;;;;;;;;;1.25;0.50;;;;;12.65;86.58;99451.97;5075730;28;45801;-82
2021/11/01 00:08:12;;;;;;;;;2.00;1.00;;;;;12.63;86.69;99450.31;5075622;28;45672;-80
2021/11/01 00:10:38;;;;;;;;;1.50;1.00;;;;;12.60;86.35;99434.84;5075686;28;45636;-80
2021/11/01 00:13:03;;;;;;;;;1.75;1.00;;;;;12.59;86.96;99441.09;5076054;28;45699;-81
2021/11/01 00:18:51;;;;;;;;;2.25;2.00;;;;;12.59;86.65;99440.25;5074898;28;45993;-80
2021/11/01 00:21:17;;;;;;;;;2.75;1.00;;;;;12.58;86.76;99444.69;5075522;28;45560;-81
2021/11/01 00:23:44;;;;;;;;;1.75;1.75;;;;;12.58;87.20;99428.91;5075617;28;45785;-81
2021/11/01 00:26:10;;;;;;;;;2.00;1.00;;;;;12.47;86.81;99415.22;5075550;28;46648;-79
2021/11/01 00:28:35;;;;;;;;;3.75;2.00;;;;;12.56;86.72;99430.06;5075294;28;46059;-79
2021/11/01 00:31:01;;;;;;;;;1.00;0.25;;;;;12.50;86.50;99418.34;5075455;28;45567;-80
2021/11/01 00:33:27;;;;;;;;;2.25;1.75;;;;;12.44;86.77;99408.44;5075555;28;45583;-81
2021/11/01 00:35:54;;;;;;;;;2.50;1.00;;;;;12.44;86.78;99420.75;5075248;28;46601;-80
2021/11/01 00:38:19;;;;;;;;;1.00;0.50;;;;;12.49;86.69;99429.00;5057047;28;48049;-80
2021/11/01 00:40:45;;;;;;;;;0.50;0.50;;;;;12.48;86.74;99424.72;5075291;28;45623;-80
2021/11/01 00:43:11;;;;;;;;;2.00;1.00;;;;;12.38;86.63;99406.41;5075114;28;45709;-81
2021/11/01 00:48:58;;;;;;;;;1.00;0.50;;;;;12.43;86.72;99406.78;5072818;28;45742;-80
2021/11/01 00:51:24;;;;;;;;;2.00;0.50;;;;;12.41;86.84;99397.41;5075144;28;46132;-80
2021/11/01 00:53:50;;;;;;;;;3.75;0.75;;;;;12.30;86.58;99377.47;5075293;28;45585;-81
2021/11/01 00:56:17;;;;;;;;;1.75;1.50;;;;;12.25;87.05;99368.38;5075659;28;45691;-83
2021/11/01 00:58:44;;;;;;;;;1.50;1.00;;;;;12.30;86.77;99381.88;5075603;28;45997;-82
2021/11/01 01:01:14;;;;;;;;;4.00;1.50;;;;;12.36;86.72;99387.34;5078892;28;45513;-81
2021/11/01 01:03:40;;;;;;;;;2.50;1.00;;;;;12.33;86.76;99371.06;5082607;28;45584;-80
2021/11/01 01:06:05;;;;;;;;;1.00;1.00;;;;;12.16;86.82;99356.97;5082569;28;45559;-81
2021/11/01 01:08:31;;;;;;;;;1.00;0.75;;;;;12.20;86.64;99364.38;5081749;28;46273;-82
2021/11/01 01:10:56;;;;;;;;;1.00;1.00;;;;;12.31;86.50;99380.91;5078812;28;45565;-82
2021/11/01 01:13:24;;;;;;;;;2.25;1.25;;;;;12.26;86.81;99372.63;5075176;28;45653;-82
2021/11/01 01:19:22;;;;;;;;;0.00;0.00;;;;;12.20;87.12;99381.94;5074588;28;45981;-82
2021/11/01 01:24:31;;;;;;;;;3.75;1.50;;;;;12.22;86.96;99372.13;5074831;28;45546;-81
2021/11/01 01:26:57;;;;;;;;;1.00;1.00;;;;;12.16;87.03;99356.97;5074743;28;45618;-81
2021/11/01 01:29:23;;;;;;;;;2.00;0.25;;;;;12.22;87.06;99360.78;5081000;28;45597;-82
2021/11/01 01:31:48;;;;;;;;;2.00;1.00;;;;;12.12;87.12;99338.06;5081563;28;45501;-81
2021/11/01 01:34:13;;;;;;;;;2.50;0.75;;;;;12.22;86.97;99382.63;5081513;28;45677;-80
2021/11/01 01:36:39;;;;;;;;;1.25;1.00;;;;;12.19;86.84;99352.25;5081262;28;46521;-80
2021/11/01 01:39:05;;;;;;;;;3.25;1.00;;;;;12.17;87.02;99366.50;5081619;28;45627;-80
2021/11/01 01:41:30;;;;;;;;;2.75;1.00;;;;;12.05;87.06;99347.50;5062882;28;45522;-80
2021/11/01 01:43:59;;;;;;;;;4.75;1.00;;;;;12.09;86.85;99353.31;5081851;28;45713;-79
2021/11/01 01:46:26;;;;;;;;;3.00;1.00;;;;;12.12;86.59;99363.50;5081597;28;46568;-80
2021/11/01 01:48:53;;;;;;;;;1.00;1.00;;;;;12.12;86.76;99355.63;5081010;28;46648;-80
2021/11/01 01:51:21;;;;;;;;;1.75;0.50;;;;;12.11;86.82;99354.78;5081465;28;45459;-80
2021/11/01 01:53:48;;;;;;;;;1.00;0.00;;;;;11.95;86.97;99338.88;5081912;28;45575;-81
2021/11/01 01:56:14;;;;;;;;;2.25;1.25;;;;;12.08;86.91;99346.41;5081135;28;46571;-79
2021/11/01 01:58:45;;;;;;;;;1.00;1.00;;;;;12.06;86.97;99353.59;5081282;28;46091;-82
2021/11/01 02:04:35;;;;;;;;;1.00;0.00;;;;;12.03;87.08;99364.41;5081283;28;45677;-83
2021/11/01 02:07:19;;;;;;;;;1.50;0.00;;;;;12.01;86.98;99351.41;5081307;28;45461;-81
2021/11/01 02:10:02;;;;;;;;;1.00;1.00;;;;;12.00;87.08;99354.19;5081046;28;45938;-82
2021/11/01 02:12:35;;;;;;;;;1.00;0.00;;;;;11.99;87.12;99355.16;5081218;28;45882;-81
2021/11/01 02:15:19;;;;;;;;;1.00;0.00;;;;;11.98;86.98;99340.38;5081666;28;45696;-83
2021/11/01 02:17:47;;;;;;;;;0.00;0.00;;;;;12.00;87.16;99351.56;5080836;28;45607;-81
2021/11/01 02:20:18;;;;;;;;;2.00;1.00;;;;;11.99;87.18;99344.63;5081015;28;46378;-80
2021/11/01 02:23:02;;;;;;;;;1.00;0.50;;;;;11.96;87.07;99339.72;5080945;28;45785;-80
2021/11/01 02:25:41;;;;;;;;;1.75;1.00;;;;;11.98;87.27;99348.28;5081143;28;45610;-80
2021/11/01 02:28:09;;;;;;;;;1.50;0.00;;;;;11.90;87.15;99345.53;5080803;28;47323;-79
2021/11/01 02:30:37;;;;;;;;;1.00;1.00;;;;;11.87;86.96;99336.19;5081847;28;45883;-81
2021/11/01 02:33:04;;;;;;;;;1.50;0.00;;;;;11.97;87.04;99355.31;5081303;28;45746;-82
2021/11/01 02:35:31;;;;;;;;;1.25;1.00;;;;;11.93;86.95;99347.88;5081234;28;45534;-82
2021/11/01 02:37:58;;;;;;;;;1.00;0.00;;;;;11.97;86.90;99357.09;5080796;28;45597;-80
2021/11/01 02:40:28;;;;;;;;;1.75;1.00;;;;;11.77;87.14;99333.59;5080688;28;45658;-82
2021/11/01 02:42:54;;;;;;;;;1.00;1.00;;;;;11.93;87.18;99353.94;5082836;28;45685;-81
2021/11/01 02:45:19;;;;;;;;;0.00;0.00;;;;;11.96;86.60;99358.06;5084901;28;45717;-83
2021/11/01 02:47:45;;;;;;;;;1.25;0.50;;;;;11.91;87.15;99348.03;5084188;28;45634;-80
2021/11/01 02:50:14;;;;;;;;;1.75;0.75;;;;;11.93;86.79;99361.81;5083684;28;45708;-81
2021/11/01 02:52:40;;;;;;;;;1.00;0.00;;;;;11.91;86.73;99355.91;5078217;28;45605;-81
2021/11/01 02:55:08;;;;;;;;;1.00;0.25;;;;;11.72;86.87;99340.22;5077593;28;45724;-81
2021/11/01 02:57:34;;;;;;;;;1.25;0.00;;;;;11.76;86.99;99339.84;5076917;28;45617;-80
2021/11/01 03:00:01;;;;;;;;;2.00;0.00;;;;;11.84;86.80;99360.09;5077015;28;45708;-81
2021/11/01 03:02:27;;;;;;;;;2.00;0.75;;;;;11.85;86.79;99364.38;5076739;28;45930;-81
2021/11/01 03:04:52;;;;;;;;;1.25;1.00;;;;;11.84;86.84;99356.63;5076913;28;45551;-81
2021/11/01 03:07:19;;;;;;;;;0.00;0.00;;;;;11.83;86.76;99352.34;5076329;28;45849;-82
2021/11/01 03:09:46;;;;;;;;;2.25;0.25;;;;;11.81;86.83;99351.69;5077199;28;46094;-79
2021/11/01 03:12:14;;;;;;;;;0.25;0.00;;;;;11.66;86.92;99322.47;5077509;28;45636;-80
2021/11/01 03:14:48;;;;;;;;;1.25;0.00;;;;;11.75;86.81;99342.59;5077159;28;45716;-81
2021/11/01 03:17:17;;;;;;;;;0.00;0.00;;;;;11.71;86.75;99339.41;5074911;28;46433;-80
2021/11/01 03:19:48;;;;;;;;;1.00;0.75;;;;;11.75;86.74;99348.69;5076323;28;45923;-78
2021/11/01 03:22:17;;;;;;;;;1.00;0.75;;;;;11.74;86.87;99356.69;5076735;28;45573;-81
2021/11/01 03:24:45;;;;;;;;;0.75;0.25;;;;;11.71;86.90;99352.53;5077166;28;45528;-79
2021/11/01 03:27:14;;;;;;;;;1.00;0.75;;;;;11.63;86.88;99343.75;5075774;28;45731;-77
2021/11/01 03:29:41;;;;;;;;;1.50;0.75;;;;;11.69;87.00;99364.16;5076578;28;45564;-78
2021/11/01 03:32:09;;;;;;;;;0.50;0.00;;;;;11.66;86.91;99370.50;5076445;28;45804;-80
2021/11/01 03:34:36;;;;;;;;;1.75;1.00;;;;;11.64;87.18;99369.84;5076397;28;45609;-78
2021/11/01 03:37:10;;;;;;;;;0.25;0.25;;;;;11.66;86.45;99374.94;5076028;28;46946;-80
2021/11/01 03:39:38;;;;;;;;;2.00;0.25;;;;;11.63;86.93;99389.16;5077168;28;45918;-82
2021/11/01 03:42:06;;;;;;;;;0.00;0.00;;;;;11.60;86.62;99383.41;5078256;28;45738;-81
2021/11/01 03:44:34;;;;;;;;;4.00;0.00;;;;;11.53;86.53;99372.66;5080611;28;45749;-80
2021/11/01 03:52:51;;;;;;;;;1.50;0.25;;;;;11.57;86.75;99373.19;5079225;28;45657;-81
2021/11/01 03:55:18;;;;;;;;;0.50;0.00;;;;;11.57;86.12;99378.44;5065696;28;45604;-81
2021/11/01 03:57:46;;;;;;;;;1.50;0.75;;;;;11.55;86.63;99375.94;5081010;28;46887;-81
2021/11/01 04:00:12;;;;;;;;;0.75;0.75;;;;;11.53;86.74;99380.53;5082877;28;45900;-80
2021/11/01 04:02:38;;;;;;;;;0.50;0.00;;;;;11.50;86.79;99378.19;5082981;28;45525;-79
2021/11/01 04:05:04;;;;;;;;;1.00;0.00;;;;;11.50;86.79;99383.41;5059345;28;45567;-80
2021/11/01 04:07:31;;;;;;;;;3.00;0.25;;;;;11.47;86.57;99385.50;5075626;28;45575;-80
2021/11/01 04:09:59;;;;;;;;;1.00;1.00;;;;;11.48;86.71;99390.63;5076157;28;46419;-81
2021/11/01 04:12:24;;;;;;;;;0.50;0.00;;;;;11.48;86.64;99392.41;5075930;28;45779;-81
2021/11/01 04:14:54;;;;;;;;;2.00;0.25;;;;;11.47;86.54;99394.22;5076049;28;45646;-80
2021/11/01 04:20:53;;;;;;;;;1.00;0.00;;;;;11.39;86.68;99380.19;5075819;28;45769;-84
2021/11/01 04:23:20;;;;;;;;;0.00;0.00;;;;;11.47;86.17;99390.75;5080034;28;45543;-79
2021/11/01 04:25:46;;;;;;;;;1.00;0.00;;;;;11.48;86.31;99392.41;5082436;28;45524;-80
2021/11/01 04:28:11;;;;;;;;;1.00;0.00;;;;;11.49;86.22;99401.94;5080528;28;45836;-80
2021/11/01 04:30:42;;;;;;;;;1.00;0.00;;;;;11.37;86.34;99380.31;5078901;28;45646;-81
2021/11/01 04:33:14;;;;;;;;;0.00;0.00;;;;;11.49;84.57;99394.06;5075814;28;45512;-81
2021/11/01 04:35:39;;;;;;;;;1.00;0.25;;;;;11.47;85.16;99382.91;5057437;28;45993;-80
2021/11/01 04:54:20;;;;;;;;;1.00;0.00;;;;;11.53;86.21;99379.69;5075017;28;45807;-80
2021/11/01 04:56:46;;;;;;;;;0.00;0.00;;;;;11.42;86.16;99364.97;5074962;28;45660;-79
2021/11/01 04:59:12;;;;;;;;;1.50;0.25;;;;;11.53;86.19;99387.56;5075548;28;45588;-79
2021/11/01 05:01:44;;;;;;;;;1.00;0.00;;;;;11.54;86.49;99397.91;5074591;28;46278;-79
2021/11/01 05:04:13;;;;;;;;;0.00;0.00;;;;;11.53;86.29;99393.63;5056057;28;45677;-79
2021/11/01 05:06:46;;;;;;;;;2.00;0.00;;;;;11.51;86.49;99384.25;5074904;28;45813;-78
2021/11/01 05:09:46;;;;;;;;;0.00;0.00;;;;;11.47;86.28;99365.38;5074895;28;47368;-79
2021/11/01 05:14:40;;;;;;;;;1.00;0.00;;;;;11.47;86.43;99367.16;5074958;28;45660;-79
2021/11/01 05:19:37;;;;;;;;;0.00;0.00;;;;;11.60;86.07;99375.53;5074701;28;45966;-80
2021/11/01 05:25:02;;;;;;;;;0.00;0.00;;;;;11.59;86.42;99382.56;4992322;28;45979;-80
2021/11/01 05:27:46;;;;;;;;;0.00;0.00;;;;;11.54;86.26;99382.19;4992678;28;45674;-81
2021/11/01 05:30:23;;;;;;;;;0.75;0.00;;;;;11.52;86.50;99365.75;4992246;28;46702;-81
2021/11/01 05:33:48;;;;;;;;;1.00;0.00;;;;;11.56;86.46;99372.34;4975218;28;46504;-79
2021/11/01 05:35:38;;;;;;;;;0.00;0.00;;;;;11.55;86.25;99380.38;4981994;28;45786;-81
2021/11/01 05:38:05;;;;;;;;;0.75;0.00;;;;;11.63;86.50;99388.34;4992315;28;45781;-79
2021/11/01 05:40:31;;;;;;;;;1.25;0.00;;;;;11.64;86.69;99398.69;4992329;28;45519;-80
2021/11/01 05:42:57;;;;;;;;;0.00;0.00;;;;;11.67;86.46;99390.53;4992060;28;46025;-81
2021/11/01 05:45:22;;;;;;;;;1.00;0.00;;;;;11.65;86.48;99392.50;4992279;28;46162;-81
2021/11/01 05:47:56;;;;;;;;;0.00;0.00;;;;;11.64;86.46;99384.75;4992261;28;45741;-80
2021/11/01 05:50:22;;;;;;;;;0.00;0.00;;;;;11.64;86.21;99396.06;4991738;28;46469;-79
2021/11/01 05:52:47;;;;;;;;;0.00;0.00;;;;;11.70;86.67;99406.00;4992070;28;47252;-79
2021/11/01 05:56:12;;;;;;;;;1.00;0.00;;;;;11.72;86.51;99409.28;4992580;28;45882;-79
2021/11/01 06:04:02;;;;;;;;;1.00;0.00;;;;;11.74;86.38;99419.66;5075587;28;45570;-79
2021/11/01 06:14:16;;;;;;;;;1.00;0.00;;;;;11.71;86.56;99440.94;5053108;28;45677;-79
2021/11/01 06:20:05;;;;;;;;;1.50;0.00;;;;;11.73;86.86;99441.63;5056742;28;45603;-77
2021/11/01 06:22:31;;;;;;;;;1.00;0.50;;;;;11.73;86.44;99436.38;5055093;28;45818;-80
2021/11/01 06:24:59;;;;;;;;;0.00;0.00;;;;;11.73;86.68;99442.44;5055219;28;45638;-78
2021/11/01 06:27:26;;;;;;;;;0.50;0.25;;;;;11.68;86.62;99435.94;5054839;28;45704;-80
2021/11/01 06:55:00;;;;;;;;;1.50;0.00;;;;;11.69;86.52;99454.19;5077045;28;45534;-82
2021/11/01 07:16:27;;;;;;;;;3.75;2.50;;;;;11.66;86.54;99451.03;5076345;28;45525;-81
2021/11/01 08:21:03;;;;;;;;;0.00;0.00;;;;;11.76;86.27;99492.03;5055544;28;45839;-80
2021/11/01 08:24:08;;;;;;;;;0.00;0.00;;;;;11.78;86.38;99499.75;5055133;28;47711;-79
2021/11/01 08:40:15;;;;;;;;;2.00;0.00;;;;;11.88;85.64;99499.69;5054782;28;45688;-78
2021/11/01 09:21:33;;;;;;;;;0.50;0.00;;;;;12.27;84.92;99506.41;5074503;28;46147;-79
2021/11/01 09:26:33;;;;;;;;;1.50;0.00;;;;;12.38;84.89;99500.97;5074360;28;45866;-78
2021/11/01 09:42:07;;;;;;;;;0.25;0.00;;;;;12.55;83.71;99501.97;5074489;28;45505;-78
2021/11/01 09:44:33;;;;;;;;;1.00;0.00;;;;;12.55;83.79;99502.78;5074734;28;45719;-80
2021/11/01 09:47:00;;;;;;;;;0.00;0.00;;;;;12.54;83.97;99495.06;5074037;28;45630;-82
2021/11/01 09:49:27;;;;;;;;;0.25;0.00;;;;;12.59;83.80;99495.44;5077788;28;46340;-79
2021/11/01 09:51:58;;;;;;;;;0.00;0.00;;;;;12.63;81.97;99492.34;5078794;28;47193;-80
2021/11/01 09:54:29;;;;;;;;;0.00;0.00;;;;;12.68;83.78;99494.56;5078644;28;45753;-80
2021/11/01 09:57:05;;;;;;;;;0.75;0.00;;;;;12.71;83.70;99490.78;5077984;28;45744;-77
2021/11/01 09:59:41;;;;;;;;;0.00;0.00;;;;;12.77;83.91;99493.66;5078090;28;46691;-80
2021/11/01 10:02:12;;;;;;;;;1.00;0.25;;;;;12.76;84.01;99478.84;5077477;28;47129;-80
2021/11/01 10:04:42;;;;;;;;;0.75;0.00;;;;;12.85;83.78;99483.19;5060494;28;45498;-83
2021/11/01 10:07:36;;;;;;;;;0.00;0.00;;;;;12.87;83.80;99489.13;5060150;28;45895;-78
2021/11/01 10:10:09;;;;;;;;;1.50;0.00;;;;;12.91;84.04;99495.72;5075589;28;45531;-80
2021/11/01 10:12:36;;;;;;;;;0.00;0.00;;;;;12.95;83.81;99494.47;5078033;28;45999;-79
2021/11/01 10:17:34;;;;;;;;;0.50;0.00;;;;;12.98;83.93;99490.69;5077534;28;45741;-77
2021/11/01 10:21:18;;;;;;;;;1.00;0.50;;;;;13.04;83.50;99492.72;4994923;28;45637;-78
2021/11/01 10:23:47;;;;;;;;;0.00;0.00;;;;;13.12;82.70;99499.91;4997662;28;45781;-78
2021/11/01 10:26:16;;;;;;;;;0.00;0.00;;;;;13.16;83.61;99502.06;4996908;28;45741;-78
2021/11/01 10:28:52;;;;;;;;;0.25;0.00;;;;;13.18;83.02;99494.00;4995936;28;45893;-78
2021/11/01 10:31:23;;;;;;;;;0.00;0.00;;;;;13.27;82.81;99501.00;4995247;28;45691;-81
2021/11/01 10:37:13;;;;;;;;;0.00;0.00;;;;;13.32;82.26;99502.19;4995300;28;45878;-81
2021/11/01 10:39:38;;;;;;;;;1.00;0.00;;;;;13.35;82.17;99495.78;4995604;28;45669;-82
2021/11/01 10:44:51;;;;;;;;;1.75;0.00;;;;;13.36;80.70;99490.38;4995265;28;45904;-82
2021/11/01 10:56:58;;;;;;;;;0.00;0.00;;;;;13.22;81.28;99437.50;4994980;28;46204;-82
2021/11/01 11:11:31;;;;;;;;;0.00;0.00;;;;;13.77;81.72;99461.66;5056267;28;45672;-81
2021/11/01 11:13:50;;;;;;;;;1.00;0.00;;;;;13.62;80.95;99421.94;5055274;28;45718;-78
2021/11/01 11:21:57;;;;;;;;;0.75;0.00;;;;;13.93;81.17;99463.56;5015253;28;45794;-77
2021/11/01 11:40:47;;;;;;;;;1.25;0.00;;;;;14.16;78.68;99465.44;5013831;28;45859;-79
2021/11/01 11:52:19;;;;;;;;;0.25;0.00;;;;;14.27;78.55;99451.97;5013648;28;45736;-81
2021/11/01 11:54:53;;;;;;;;;0.00;0.00;;;;;14.33;78.85;99449.66;5013985;28;45758;-81
2021/11/01 11:57:28;;;;;;;;;0.00;0.00;;;;;14.43;78.95;99455.66;5074464;28;46020;-81
2021/11/01 11:59:56;;;;;;;;;1.00;0.00;;;;;14.38;78.66;99442.13;5076183;28;45679;-81
2021/11/01 12:02:45;;;;;;;;;0.00;0.00;;;;;14.55;76.52;99444.63;5076497;28;45650;-80
2021/11/01 12:08:39;;;;;;;;;0.00;0.00;;;;;14.67;77.59;99453.06;5076148;28;45602;-81
2021/11/01 12:18:54;;;;;;;;;0.00;0.00;;;;;14.78;77.65;99441.38;5076360;28;45540;-83
2021/11/01 12:24:47;;;;;;;;;0.50;0.00;;;;;14.79;78.22;99424.56;5078994;28;45959;-84
2021/11/01 12:27:13;;;;;;;;;1.00;0.00;;;;;14.73;77.50;99415.50;5077647;28;45648;-80
2021/11/01 12:29:39;;;;;;;;;2.00;1.00;;;;;14.84;76.87;99425.72;5077657;28;45702;-83
2021/11/01 12:32:13;;;;;;;;;0.00;0.00;;;;;14.86;77.31;99417.63;5077604;28;46373;-80
2021/11/01 12:35:14;;;;;;;;;0.75;0.25;;;;;14.98;74.83;99429.47;5077959;28;45985;-85
2021/11/01 12:37:59;;;;;;;;;0.00;0.00;;;;;15.00;77.11;99419.59;5077009;28;45669;-82
2021/11/01 12:57:17;;;;;;;;;0.25;0.00;;;;;14.93;71.95;99386.97;5074686;28;45941;-79
2021/11/01 12:59:48;;;;;;;;;1.00;0.00;;;;;14.76;72.37;99387.97;5057593;28;45648;-80
2021/11/01 13:02:16;;;;;;;;;0.00;0.00;;;;;14.64;72.41;99396.19;5075259;28;45838;-75
2021/11/01 13:08:05;;;;;;;;;0.00;0.00;;;;;14.50;73.14;99385.50;5077362;28;45821;-79
2021/11/01 13:18:28;;;;;;;;;0.00;0.00;;;;;14.25;73.94;99348.53;5075254;28;45519;-78
2021/11/01 13:24:17;;;;;;;;;1.00;0.00;;;;;14.39;73.85;99349.75;5073925;28;45539;-81
2021/11/01 13:37:38;;;;;;;;;0.00;0.00;;;;;14.54;72.88;99347.28;5075137;28;45564;-77
2021/11/01 13:40:18;;;;;;;;;0.50;0.00;;;;;14.51;73.13;99348.44;5073938;28;45988;-76
2021/11/01 13:42:58;;;;;;;;;0.00;0.00;;;;;14.57;72.94;99344.31;5075465;28;45722;-80
2021/11/01 13:45:24;;;;;;;;;0.00;0.00;;;;;14.56;73.22;99340.03;5057056;28;45546;-76
2021/11/01 13:47:57;;;;;;;;;0.00;0.00;;;;;14.53;72.83;99329.81;5056491;28;47409;-76
2021/11/01 13:50:26;;;;;;;;;0.00;0.00;;;;;14.52;71.83;99333.44;5073399;28;46515;-75
2021/11/01 13:53:08;;;;;;;;;0.00;0.00;;;;;14.43;71.25;99366.03;5073504;28;45479;-72
2021/11/01 13:55:42;;;;;;;;;1.00;0.00;;;;;14.27;71.48;99387.91;5073675;28;45836;-80
2021/11/01 14:11:48;;;;;;;;;1.00;0.00;;;;;13.34;75.08;99368.69;5032351;28;46103;-73
2021/11/01 14:20:06;;;;;;;;;0.00;0.00;;;;;12.86;77.63;99347.34;5033264;28;45612;-78
2021/11/01 15:17:11;;;;;;;;;0.00;0.00;;;;;10.65;85.97;99391.38;5080331;28;46558;-76
2021/11/01 16:18:10;;;;;;;;;0.00;0.00;;;;;13.15;80.63;99382.06;5055579;28;45523;-79
2021/11/01 16:20:35;;;;;;;;;1.00;1.00;;;;;13.06;80.25;99396.13;5054398;28;45709;-82
2021/11/01 16:28:53;;;;;;;;;2.00;1.00;;;;;12.78;81.32;99389.34;5055423;28;45716;-80
2021/11/01 16:33:50;;;;;;;;;0.25;0.00;;;;;12.60;80.92;99384.94;5054629;28;46159;-76
2021/11/01 16:39:09;;;;;;;;;2.00;1.00;;;;;12.35;81.66;99380.47;5055092;28;45518;-77
2021/11/01 16:41:35;;;;;;;;;0.50;0.00;;;;;12.25;81.27;99386.75;5055295;28;46411;-79
2021/11/01 16:44:12;;;;;;;;;3.25;1.25;;;;;12.05;81.57;99375.56;5054850;28;46028;-79
2021/11/01 16:46:38;;;;;;;;;3.00;2.00;;;;;12.03;81.58;99382.78;5054876;28;45547;-77
2021/11/01 16:49:04;;;;;;;;;3.25;3.25;;;;;12.00;81.87;99396.16;5055456;28;45504;-79
2021/11/01 16:51:34;;;;;;;;;3.00;3.00;;;;;11.97;82.25;99402.56;5055381;28;45651;-80
2021/11/01 16:53:59;;;;;;;;;1.50;1.25;;;;;11.89;82.02;99397.19;5058598;28;45648;-82
2021/11/01 16:56:39;;;;;;;;;2.00;1.75;;;;;11.85;82.20;99395.84;5079987;28;45582;-79
2021/11/01 16:59:33;;;;;;;;;2.00;1.00;;;;;11.79;82.62;99401.69;5081892;28;45620;-83
2021/11/01 17:01:59;;;;;;;;;4.00;2.00;;;;;11.78;82.46;99407.91;5081415;28;45626;-76
2021/11/01 17:04:26;;;;;;;;;3.50;3.50;;;;;11.72;82.42;99403.19;5064052;28;47780;-79
2021/11/01 17:07:01;;;;;;;;;3.50;2.50;;;;;11.74;82.67;99411.78;5078060;28;45514;-82
2021/11/01 17:22:58;;;;;;;;;1.00;1.00;;;;;11.60;82.94;99399.13;5076108;28;46117;-77
2021/11/01 17:25:42;;;;;;;;;8.00;5.75;;;;;11.66;83.27;99401.19;5074960;28;46023;-83
2021/11/01 17:28:18;;;;;;;;;2.25;2.00;;;;;11.66;82.87;99409.84;5075638;28;45788;-84
2021/11/01 18:43:45;;;;;;;;;6.00;4.50;;;;;11.13;83.58;99453.38;5080875;28;45883;-73
2021/11/01 18:51:48;;;;;;;;;4.00;3.00;;;;;11.22;84.02;99447.31;5079236;28;46038;-76
2021/11/01 18:58:21;;;;;;;;;4.00;4.00;;;;;11.33;83.77;99458.47;5078229;28;46095;-77
2021/11/01 19:00:47;;;;;;;;;7.50;7.50;;;;;11.36;83.58;99452.09;5079327;28;45477;-84
2021/11/01 19:03:16;;;;;;;;;6.00;4.00;;;;;11.35;83.69;99447.81;5061002;28;46535;-81
2021/11/01 19:05:51;;;;;;;;;5.50;4.00;;;;;11.39;83.36;99446.53;5077280;28;45701;-83
2021/11/01 20:03:01;;;;;;;;;18.25;17.50;;;;;11.50;83.10;99433.25;5074923;28;45840;-73
2021/11/01 20:05:24;;;;;;;;;26.25;23.25;;;;;11.38;83.11;99404.75;5074252;28;45539;-73
2021/11/01 21:26:59;;;;;;;;;14.00;11.50;;;;;11.19;80.96;99421.34;5075098;28;45509;-77
2021/11/01 21:29:29;;;;;;;;;3.00;3.00;;;;;11.15;81.14;99406.88;5057261;28;45665;-78
2021/11/01 21:31:54;;;;;;;;;3.25;3.00;;;;;11.16;81.13;99406.75;5075828;28;46690;-78
2021/11/01 21:34:42;;;;;;;;;2.25;2.00;;;;;11.21;81.35;99416.81;5075679;28;45619;-80
2021/11/01 21:37:08;;;;;;;;;2.00;2.00;;;;;11.22;81.70;99421.91;5057106;28;45892;-78
2021/11/01 21:39:35;;;;;;;;;3.75;2.00;;;;;11.24;81.56;99413.88;5076452;28;45616;-79
2021/11/01 21:42:03;;;;;;;;;3.00;3.00;;;;;11.16;81.51;99392.81;5072512;28;46206;-79
2021/11/01 21:44:32;;;;;;;;;3.00;2.75;;;;;11.20;81.27;99408.09;5076679;28;45836;-80
2021/11/01 21:46:57;;;;;;;;;1.50;1.50;;;;;11.12;81.22;99399.31;5080546;28;45476;-78
2021/11/01 21:49:23;;;;;;;;;3.50;3.00;;;;;11.09;81.71;99395.16;5080085;28;46911;-79
2021/11/01 21:51:49;;;;;;;;;3.00;3.00;;;;;11.05;81.71;99385.94;5081247;28;46405;-81
2021/11/01 21:54:30;;;;;;;;;1.25;1.00;;;;;11.16;81.96;99388.41;5085947;28;45605;-79
2021/11/01 21:57:03;;;;;;;;;3.25;3.00;;;;;11.21;81.95;99394.03;5088674;28;45590;-78
2021/11/01 22:20:50;;;;;;;;;3.00;3.00;;;;;11.24;81.63;99364.91;5098549;28;45276;-78
2021/11/01 22:23:29;;;;;;;;;4.00;3.25;;;;;11.36;81.57;99371.63;5096522;28;46278;-79
2021/11/01 22:45:26;;;;;;;;;5.50;4.00;;;;;11.46;81.70;99368.13;5076671;28;46002;-78
2021/11/01 22:59:18;;;;;;;;;3.00;2.00;;;;;11.28;81.02;99345.28;5076890;27;45933;-76
2021/11/01 23:01:46;;;;;;;;;3.00;3.00;;;;;11.27;81.39;99346.28;5077254;28;45568;-78
2021/11/01 23:31:38;;;;;;;;;1.00;1.00;;;;;11.06;81.63;99331.75;5054224;28;45659;-78
2021/11/01 23:34:10;;;;;;;;;1.00;1.00;;;;;11.10;81.48;99344.41;5055621;28;45672;-79
2021/11/01 23:36:37;;;;;;;;;2.00;1.50;;;;;11.01;81.45;99318.25;5056390;28;47792;-78
2021/11/01 23:42:24;;;;;;;;;2.50;1.25;;;;;10.98;81.51;99308.84;5058079;28;45651;-78
2021/11/01 23:44:54;;;;;;;;;1.00;1.00;;;;;11.05;81.40;99325.66;5056921;28;45814;-78
2021/11/01 23:47:19;;;;;;;;;1.00;1.00;;;;;10.93;81.19;99306.66;5074005;28;46333;-78
2021/11/01 23:49:45;;;;;;;;;0.00;0.00;;;;;11.03;81.41;99329.38;5077017;28;45540;-79
2021/11/01 23:52:13;;;;;;;;;1.00;1.00;;;;;11.01;81.36;99331.34;5076705;28;45454;-79
2021/11/01 23:58:00;;;;;;;;;1.00;1.00;;;;;10.99;81.14;99322.78;5076284;28;46020;-78
